Bezoek onze andere website:

Template documentation
and downloads

And another site


Weather Underground Historische gegevens

Dagelijkse Samenvatting september 26, 2018 Eenheden:  Metrisch    Engels   Beide
« Vorige Dag
Volgende Dag »
Dagelijkse Wekelijkse Maandelijkse Jaarlijkse Aangepaste
  Huidig: Hoog: Laag: Gemiddeld:
Temperatuur: -11.5 °C -17.8 °C -15.3 °C -14.4 °C
Dauwpunt: -13.8 °C -17.8 °C -16.2 °C -15.6 °C
Vochtigheid: 76 % Humidity % 76 % 86 %
Wind snelheid: 10.3 km/h 0 km/h 0 km/h 2.6 km/h
Windvlaag: 20.8 km/h 0 km/h - -
Wind:SSW - - SSW
Luchtdruk: 34933.4 hPa 0 hPa 34923.2 hPa -
Neerslag: 0 mm      
Historical Graphs
 
 
Tabel voor september 26, 2018
Tijd Temperatuur Dauwpunt Luchtdruk Wind Wind snelheid Windvlaag Vochtigheid Regenval per uur
-17.8 °C -17.8 °C 0 hPa Calm     Humidity % 0 mm
00:06 -14 °C -15.2 °C 35038.3 hPa South 2.3 km/h 5.1 km/h 86 % 0 mm
00:16 -14.2 °C -15.3 °C 35038.3 hPa South 5.1 km/h 7.7 km/h 87 % 0 mm
00:26 -14.3 °C -15.4 °C 35038.3 hPa South 2.3 km/h 2.6 km/h 87 % 0 mm
00:36 -14.6 °C -15.7 °C 35038.3 hPa South 2.3 km/h 2.6 km/h 87 % 0 mm
00:46 -14.7 °C -15.8 °C 35038.3 hPa South 2.3 km/h 2.6 km/h 87 % 0 mm
00:57 -14.8 °C -15.8 °C 35038.3 hPa South 2.3 km/h 2.6 km/h 88 % 0 mm
01:07 -14.8 °C -15.8 °C 35024.8 hPa South 2.3 km/h 5.1 km/h 88 % 0 mm
01:17 -14.9 °C -15.8 °C 35024.8 hPa Calm   2.6 km/h 89 % 0 mm
01:27 -14.9 °C -15.9 °C 35024.8 hPa Calm     89 % 0 mm
01:37 -15.1 °C -16.1 °C 35014.6 hPa Calm     88 % 0 mm
01:47 -15.2 °C -16.2 °C 35014.6 hPa Calm     88 % 0 mm
01:57 -15.2 °C -16.2 °C 35014.6 hPa Calm     89 % 0 mm
02:07 -15.3 °C -16.2 °C 35014.6 hPa Calm     89 % 0 mm
02:17 -15.1 °C -15.8 °C 35001.1 hPa South 2.3 km/h 5.1 km/h 91 % 0 mm
02:28 -15.1 °C -15.9 °C 35001.1 hPa Calm     90 % 0 mm
02:38 -15.2 °C -16 °C 35001.1 hPa Calm     90 % 0 mm
02:48 -15.2 °C -16.1 °C 35001.1 hPa Calm   5.1 km/h 90 % 0 mm
02:58 -15.1 °C -15.8 °C 35001.1 hPa South 2.3 km/h 2.6 km/h 91 % 0 mm
03:08 -15.1 °C -15.8 °C 35001.1 hPa South 2.3 km/h 2.6 km/h 91 % 0 mm
03:18 -15.1 °C -15.9 °C 34990.9 hPa South 2.3 km/h 5.1 km/h 90 % 0 mm
03:28 -15.2 °C -16 °C 34990.9 hPa Calm     90 % 0 mm
03:38 -15.2 °C -16.1 °C 34990.9 hPa Calm   2.6 km/h 90 % 0 mm
03:48 -15.3 °C -16.2 °C 34980.8 hPa Calm   2.6 km/h 90 % 0 mm
03:58 -15.3 °C -16.2 °C 34980.8 hPa Calm   2.6 km/h 90 % 0 mm
04:09 -15.3 °C -16.2 °C 34980.8 hPa South 2.3 km/h 2.6 km/h 90 % 0 mm
04:19 -15.2 °C -15.9 °C 34967.2 hPa Calm   2.6 km/h 91 % 0 mm
04:29 -15.2 °C -15.9 °C 34967.2 hPa Calm     91 % 0 mm
04:39 -15.3 °C -16 °C 34967.2 hPa Calm     91 % 0 mm
04:49 -15.3 °C -16.2 °C 34967.2 hPa Calm     90 % 0 mm
04:59 -15.2 °C -15.9 °C 34967.2 hPa Calm   2.6 km/h 91 % 0 mm
05:09 -15.2 °C -15.8 °C 34967.2 hPa South 2.3 km/h 2.6 km/h 92 % 0 mm
05:19 -14.9 °C -15.6 °C 34957.1 hPa Calm     92 % 0 mm
05:29 -15 °C -15.7 °C 34957.1 hPa South 2.3 km/h 5.1 km/h 91 % 0 mm
05:39 -15.1 °C -15.8 °C 34957.1 hPa South 2.3 km/h 2.6 km/h 91 % 0 mm
05:49 -15.1 °C -15.8 °C 34957.1 hPa South 2.3 km/h 2.6 km/h 91 % 0 mm
05:59 -15.1 °C -15.9 °C 34957.1 hPa Calm   2.6 km/h 90 % 0 mm
06:10 -15.2 °C -15.9 °C 34946.9 hPa Calm   2.6 km/h 91 % 0 mm
06:20 -15.2 °C -15.9 °C 34946.9 hPa South 2.3 km/h 5.1 km/h 91 % 0 mm
06:30 -14.9 °C -15.6 °C 34933.4 hPa South 2.3 km/h 2.6 km/h 92 % 0 mm
06:40 -14.8 °C -15.6 °C 34933.4 hPa Calm   2.6 km/h 91 % 0 mm
06:50 -14.8 °C -15.6 °C 34933.4 hPa Calm   2.6 km/h 90 % 0 mm
07:00 -14.7 °C -15.6 °C 34933.4 hPa SSE 2.3 km/h 5.1 km/h 90 % 0 mm
07:10 -14.7 °C -15.5 °C 34933.4 hPa SSW 2.3 km/h 2.6 km/h 90 % 0 mm
07:20 -14.6 °C -15.4 °C 34933.4 hPa Calm   5.1 km/h 90 % 0 mm
07:30 -14.5 °C -15.4 °C 34933.4 hPa South 2.3 km/h 5.1 km/h 89 % 0 mm
07:40 -14.3 °C -15.3 °C 34933.4 hPa SSW 5.1 km/h 5.1 km/h 88 % 0 mm
07:50 -14.1 °C -15.2 °C 34923.2 hPa SW 5.1 km/h 5.1 km/h 87 % 0 mm
08:00 -13.9 °C -15.2 °C 34923.2 hPa South 7.6 km/h 7.7 km/h 86 % 0 mm
08:10 -13.7 °C -15.1 °C 34923.2 hPa SSW 2.3 km/h 7.7 km/h 84 % 0 mm
08:20 -13.6 °C -15.1 °C 34923.2 hPa WSW 7.6 km/h 15.6 km/h 83 % 0 mm
08:30 -13.4 °C -15 °C 34923.2 hPa SSW 2.3 km/h 12.9 km/h 82 % 0 mm
08:40 -13.3 °C -14.9 °C 34923.2 hPa West 2.3 km/h 12.9 km/h 82 % 0 mm
08:50 -13.3 °C -14.9 °C 34923.2 hPa WSW 2.3 km/h 10.3 km/h 82 % 0 mm
09:00 -13.3 °C -14.9 °C 34923.2 hPa Calm   10.3 km/h 82 % 0 mm
09:10 -13.2 °C -14.8 °C 34923.2 hPa SSW 5.1 km/h 18.2 km/h 82 % 0 mm
09:20 -13.2 °C -14.8 °C 34923.2 hPa SW 5.1 km/h 18.2 km/h 82 % 0 mm
09:30 -13 °C -14.7 °C 34923.2 hPa SSW 7.6 km/h 12.9 km/h 81 % 0 mm
09:40 -12.9 °C -14.6 °C 34923.2 hPa SSW 10.3 km/h 10.3 km/h 81 % 0 mm
09:50 -12.7 °C -14.5 °C 34923.2 hPa SSW 7.6 km/h 12.9 km/h 80 % 0 mm
10:00 -12.6 °C -14.3 °C 34933.4 hPa SW 7.6 km/h 10.3 km/h 81 % 0 mm
10:10 -12.4 °C -14.3 °C 34933.4 hPa SSW 15.6 km/h 18.2 km/h 80 % 0 mm
10:20 -12.2 °C -14.1 °C 34933.4 hPa SW 10.3 km/h 15.6 km/h 80 % 0 mm
10:30 -11.9 °C -14.1 °C 34933.4 hPa SSW 7.6 km/h 23.3 km/h 77 % 0 mm
10:40 -11.5 °C -13.8 °C 34933.4 hPa SSW 10.3 km/h 20.8 km/h 76 % 0 mm
Weerstation Vierhouten
Gegevens verzameld door Weather Underground - 4 mb

Script ontwikkeld door  Jim McMurry - jmcmurry@mwt.net Aangepast voor de template door  Wim van der Kuil - Leuven-Template.eu

U vindt ons ook hier:

Het Weer Aktueel

WeatherCloud

Weather Underground